Latest Coastal Weather Observations for Geraldton Airport
Issued at 9:43 pm WST Monday 4 May 2026 (issued every 10 minutes, with the page automatically refreshed every 10 minutes)
| Station Details | ID: 008315 | Name: GERALDTON AIRPORT | Lat: -28.80 | Lon: 114.70 | Height: 29.7 m |
| Date/Time WST |
Wind | Sea Height m |
Swell | Vis km |
Cloud | Weather | Temp °C |
Press MSL hPa |
Rain since 9am mm |
|||||
|---|---|---|---|---|---|---|---|---|---|---|---|---|---|---|
| Dir | Spd kts |
Gust kts |
Height m |
Period s |
Dir | |||||||||
| 04/09:30pm | SE | 5 | 6 | - | - | - | - | 10 | Clear | - | 14.7 | 1022.5 | 0.0 | |
| 04/09:00pm | ESE | 6 | 7 | - | - | - | - | 10 | - | - | 16.1 | 1022.5 | 0.0 | |
| 04/08:30pm | SE | 6 | 8 | - | - | - | - | 10 | - | - | 16.3 | 1022.5 | 0.0 | |
| 04/08:00pm | SE | 5 | 6 | - | - | - | - | 10 | - | - | 16.6 | 1022.3 | 0.0 | |
| 04/07:30pm | E | 6 | 9 | - | - | - | - | 10 | - | - | 17.5 | 1022.1 | 0.0 | |
| 04/07:00pm | ESE | 9 | 9 | - | - | - | - | 10 | - | - | 18.0 | 1021.6 | 0.0 | |
| 04/06:30pm | ESE | 8 | 9 | - | - | - | - | 10 | - | - | 19.3 | 1021.4 | 0.0 | |
| 04/06:00pm | ESE | 9 | 11 | - | - | - | - | 10 | - | - | 21.2 | 1021.1 | 0.0 | |
| 04/05:30pm | ESE | 13 | 16 | - | - | - | - | 10 | - | - | 24.0 | 1020.8 | 0.0 | |
| 04/05:00pm | E | 14 | 17 | - | - | - | - | 10 | - | - | 25.4 | 1020.7 | 0.0 | |
| 04/04:30pm | E | 14 | 17 | - | - | - | - | 10 | - | - | 26.3 | 1020.6 | 0.0 | |
| 04/04:00pm | ESE | 14 | 18 | - | - | - | - | 10 | - | - | 26.6 | 1020.5 | 0.0 | |
| 04/03:30pm | E | 13 | 19 | - | - | - | - | 10 | - | - | 27.0 | 1020.5 | 0.0 | |
| 04/03:00pm | ENE | 11 | 17 | - | - | - | - | 10 | - | - | 27.3 | 1020.6 | 0.0 | |
| 04/02:30pm | ENE | 12 | 17 | - | - | - | - | 10 | - | - | 27.0 | 1020.6 | 0.0 | |
| 04/02:00pm | E | 14 | 18 | - | - | - | - | 10 | - | - | 26.5 | 1020.5 | 0.0 | |
| 04/01:30pm | E | 15 | 21 | - | - | - | - | 10 | - | - | 26.3 | 1020.9 | 0.0 | |
| 04/01:00pm | E | 15 | 19 | - | - | - | - | 10 | - | - | 25.6 | 1021.4 | 0.0 | |
| 04/12:30pm | ENE | 15 | 21 | - | - | - | - | 10 | - | - | 25.3 | 1021.9 | 0.0 | |
| 04/12:00pm | ENE | 16 | 23 | - | - | - | - | 10 | - | - | 24.7 | 1022.6 | 0.0 | |
| 04/11:30am | ENE | 19 | 24 | - | - | - | - | 10 | - | - | 24.1 | 1023.2 | 0.0 | |
| 04/11:00am | ENE | 17 | 23 | - | - | - | - | 10 | - | - | 24.3 | 1023.8 | 0.0 | |
| 04/10:30am | ENE | 21 | 27 | - | - | - | - | 10 | - | - | 22.8 | 1024.0 | 0.0 | |
| 04/10:00am | ENE | 22 | 27 | - | - | - | - | 10 | - | - | 21.3 | 1024.1 | 0.0 | |
| 04/09:30am | ENE | 22 | 27 | - | - | - | - | 10 | - | - | 19.9 | 1024.3 | 0.0 | |
| 04/09:00am | E | 19 | 24 | - | - | - | - | 10 | - | - | 18.6 | 1024.6 | 0.0 | |
| 04/08:30am | E | 17 | 21 | - | - | - | - | 10 | - | - | 17.6 | 1024.8 | 0.0 | |
| 04/08:00am | ENE | 21 | 25 | - | - | - | - | 10 | - | - | 15.9 | 1024.5 | 0.0 | |
| 04/07:30am | ENE | 17 | 21 | - | - | - | - | 10 | - | - | 14.9 | 1024.1 | 0.0 | |
| 04/07:00am | ENE | 16 | 20 | - | - | - | - | 10 | - | - | 14.0 | 1023.9 | 0.0 | |
| 04/06:30am | ENE | 15 | 18 | - | - | - | - | 10 | - | - | 13.9 | 1023.4 | 0.0 | |
| 04/06:00am | E | 17 | 21 | - | - | - | - | 10 | - | - | 14.3 | 1023.0 | 0.0 | |
| 04/05:30am | E | 17 | 21 | - | - | - | - | 10 | - | - | 14.9 | 1022.8 | 0.0 | |
| 04/05:00am | E | 20 | 26 | - | - | - | - | 10 | - | - | 14.9 | 1022.6 | 0.0 | |
| 04/04:30am | E | 20 | 25 | - | - | - | - | 10 | - | - | 15.1 | 1022.4 | 0.0 | |
| 04/04:00am | E | 14 | 18 | - | - | - | - | 10 | - | - | 14.8 | 1022.6 | 0.0 | |
| 04/03:30am | ESE | 12 | 17 | - | - | - | - | 10 | - | - | 14.2 | 1022.7 | 0.0 | |
| 04/03:00am | ESE | 14 | 17 | - | - | - | - | 10 | - | - | 14.3 | 1022.8 | 0.0 | |
| 04/02:30am | ESE | 11 | 14 | - | - | - | - | 10 | - | - | 13.5 | 1022.9 | 0.0 | |
| 04/02:00am | SE | 13 | 16 | - | - | - | - | 10 | - | - | 14.0 | 1023.1 | 0.0 | |
| 04/01:30am | SE | 9 | 12 | - | - | - | - | 10 | - | - | 13.5 | 1023.3 | 0.0 | |
| 04/01:00am | SE | 9 | 11 | - | - | - | - | 10 | - | - | 13.7 | 1023.4 | 0.0 | |
| 04/12:30am | SE | 9 | 12 | - | - | - | - | 10 | - | - | 14.4 | 1023.5 | 0.0 | |
| 04/12:00am | ESE | 10 | 11 | - | - | - | - | 10 | - | - | 13.4 | 1023.4 | 0.0 | |
| Date/Time WST |
Wind | Sea Height m |
Swell | Vis km |
Cloud | Weather | Temp °C |
Press MSL hPa |
Rain since 9am mm |
|||||
|---|---|---|---|---|---|---|---|---|---|---|---|---|---|---|
| Dir | Spd kts |
Gust kts |
Height m |
Period s |
Dir | |||||||||
| 03/11:30pm | SSE | 7 | 8 | - | - | - | - | 10 | - | - | 12.8 | 1023.4 | 0.0 | |
| 03/11:00pm | SSE | 6 | 7 | - | - | - | - | 10 | - | - | 12.9 | 1023.3 | 0.0 | |
| 03/10:30pm | SSE | 5 | 6 | - | - | - | - | 10 | - | - | 12.8 | 1023.4 | 0.0 | |
| 03/10:00pm | SE | 6 | 7 | - | - | - | - | 10 | - | - | 13.0 | 1023.2 | 0.0 | |
| 03/09:30pm | SSE | 6 | 7 | - | - | - | - | 10 | - | - | 13.4 | 1023.0 | 0.0 | |
| 03/09:00pm | SSE | 7 | 8 | - | - | - | - | 10 | - | - | 14.3 | 1022.7 | 0.0 | |
| 03/08:30pm | SE | 7 | 8 | - | - | - | - | 10 | - | - | 14.5 | 1022.4 | 0.0 | |
| 03/08:00pm | SE | 7 | 9 | - | - | - | - | 10 | - | - | 14.9 | 1022.2 | 0.0 | |
| 03/07:30pm | SE | 9 | 10 | - | - | - | - | 10 | - | - | 16.3 | 1021.9 | 0.0 | |
| 03/07:00pm | SE | 9 | 10 | - | - | - | - | 10 | - | - | 17.6 | 1021.6 | 0.0 | |
| 03/06:30pm | SE | 8 | 9 | - | - | - | - | 10 | - | - | 18.8 | 1021.4 | 0.0 | |
| 03/06:00pm | SE | 9 | 11 | - | - | - | - | 10 | - | - | 20.4 | 1021.1 | 0.0 | |
| 03/05:30pm | SE | 15 | 19 | - | - | - | - | 10 | - | - | 22.3 | 1020.6 | 0.0 | |
| 03/05:00pm | ESE | 14 | 20 | - | - | - | - | 10 | - | - | 23.3 | 1020.4 | 0.0 | |
| 03/04:30pm | SE | 14 | 19 | - | - | - | - | 10 | - | - | 23.9 | 1020.2 | 0.0 | |
| 03/04:00pm | ESE | 14 | 21 | - | - | - | - | 10 | - | - | 24.3 | 1020.3 | 0.0 | |
| 03/03:30pm | ESE | 13 | 20 | - | - | - | - | 10 | - | - | 24.2 | 1020.5 | 0.0 | |
| 03/03:00pm | ESE | 14 | 18 | - | - | - | - | 10 | - | - | 24.2 | 1020.6 | 0.0 | |
| 03/02:30pm | ESE | 13 | 18 | - | - | - | - | 10 | - | - | 24.0 | 1020.6 | 0.0 | |
| 03/02:00pm | ESE | 12 | 17 | - | - | - | - | 10 | - | - | 24.2 | 1021.0 | 0.0 | |
| 03/01:30pm | ESE | 13 | 19 | - | - | - | - | 10 | - | - | 23.5 | 1021.3 | 0.0 | |
| 03/01:00pm | ESE | 11 | 22 | - | - | - | - | 10 | - | - | 23.0 | 1021.5 | 0.0 | |
| 03/12:30pm | E | 14 | 20 | - | - | - | - | 10 | - | - | 22.8 | 1022.0 | 0.0 | |
| 03/12:00pm | ESE | 14 | 20 | - | - | - | - | 10 | - | - | 22.4 | 1022.5 | 0.0 | |
| 03/11:30am | ESE | 13 | 20 | - | - | - | - | 10 | - | - | 21.1 | 1023.0 | 0.0 | |
| 03/11:00am | E | 14 | 19 | - | - | - | - | 10 | - | - | 20.8 | 1023.6 | 0.0 | |
| 03/10:30am | E | 16 | 22 | - | - | - | - | 10 | - | - | 20.1 | 1024.0 | 0.0 | |
| 03/10:00am | E | 18 | 23 | - | - | - | - | 10 | - | - | 19.0 | 1024.1 | 0.0 | |
| 03/09:30am | E | 19 | 25 | - | - | - | - | 10 | - | - | 17.7 | 1024.3 | 0.0 | |
| 03/09:00am | E | 17 | 23 | - | - | - | - | 10 | - | - | 16.4 | 1024.3 | 0.0 | |
| 03/08:30am | ESE | 13 | 20 | - | - | - | - | 10 | - | - | 15.1 | 1024.4 | 0.0 | |
| 03/08:00am | ESE | 9 | 12 | - | - | - | - | 10 | - | - | 13.0 | 1024.4 | 0.0 | |
| 03/07:30am | SE | 8 | 10 | - | - | - | - | 10 | - | - | 11.7 | 1024.0 | 0.0 | |
| 03/07:00am | SE | 7 | 10 | - | - | - | - | 10 | - | - | 10.4 | 1023.9 | 0.0 | |
| 03/06:30am | SE | 11 | 13 | - | - | - | - | 10 | - | - | 10.9 | 1023.5 | 0.0 | |
| 03/06:00am | SE | 7 | 10 | - | - | - | - | 10 | - | - | 10.4 | 1023.4 | 0.0 | |
| 03/05:30am | SE | 9 | 13 | - | - | - | - | 10 | - | - | 10.0 | 1023.3 | 0.0 | |
| 03/05:00am | SE | 12 | 15 | - | - | - | - | 10 | - | - | 11.3 | 1023.2 | 0.0 | |
| 03/04:30am | SE | 11 | 14 | - | - | - | - | 10 | - | - | 11.4 | 1023.2 | 0.0 | |
| 03/04:00am | ESE | 13 | 16 | - | - | - | - | 10 | - | - | 11.9 | 1023.0 | 0.0 | |
| 03/03:30am | SE | 7 | 10 | - | - | - | - | 10 | - | - | 9.1 | 1023.2 | 0.0 | |
| 03/03:00am | SSE | 7 | 8 | - | - | - | - | 10 | - | - | 9.1 | 1023.1 | 0.0 | |
| 03/02:30am | SSE | 8 | 9 | - | - | - | - | 10 | - | - | 9.6 | 1023.2 | 0.0 | |
| 03/02:00am | SSE | 8 | 9 | - | - | - | - | 10 | - | - | 9.3 | 1023.3 | 0.0 | |
| 03/01:30am | SE | 9 | 11 | - | - | - | - | 10 | - | - | 10.0 | 1023.3 | 0.0 | |
| 03/01:00am | SE | 9 | 10 | - | - | - | - | 10 | - | - | 9.9 | 1023.3 | 0.0 | |
| 03/12:30am | SE | 9 | 9 | - | - | - | - | 10 | - | - | 10.1 | 1023.3 | 0.0 | |
| 03/12:00am | SE | 6 | 7 | - | - | - | - | 10 | - | - | 10.0 | 1023.3 | 0.0 | |
| Date/Time WST |
Wind | Sea Height m |
Swell | Vis km |
Cloud | Weather | Temp °C |
Press MSL hPa |
Rain since 9am mm |
|||||
|---|---|---|---|---|---|---|---|---|---|---|---|---|---|---|
| Dir | Spd kts |
Gust kts |
Height m |
Period s |
Dir | |||||||||
| 02/11:30pm | SSE | 9 | 10 | - | - | - | - | 10 | - | - | 10.5 | 1023.4 | 0.0 | |
| 02/11:00pm | SSE | 9 | 10 | - | - | - | - | 10 | - | - | 10.7 | 1023.5 | 0.0 | |
| 02/10:30pm | SSE | 8 | 9 | - | - | - | - | 10 | - | - | 10.9 | 1023.5 | 0.0 | |
| 02/10:00pm | SSE | 8 | 9 | - | - | - | - | 10 | - | - | 11.1 | 1023.5 | 0.0 | |
| 02/09:30pm | SSE | 8 | 9 | - | - | - | - | 10 | - | - | 11.6 | 1023.4 | 0.0 | |
| 02/09:00pm | SSE | 8 | 9 | - | - | - | - | 10 | - | - | 11.6 | 1023.3 | 0.0 | |
| 02/08:30pm | SSE | 7 | 8 | - | - | - | - | 10 | - | - | 12.0 | 1023.2 | 0.0 | |
| 02/08:00pm | SSE | 7 | 8 | - | - | - | - | 10 | - | - | 12.6 | 1022.9 | 0.0 | |
| 02/07:30pm | SSE | 7 | 9 | - | - | - | - | 10 | - | - | 13.3 | 1022.6 | 0.0 | |
| 02/07:00pm | SSE | 6 | 7 | - | - | - | - | 10 | - | - | 14.4 | 1022.3 | 0.0 | |
| 02/06:30pm | SSE | 8 | 9 | - | - | - | - | 10 | - | - | 16.1 | 1021.9 | 0.0 | |
| 02/06:00pm | SE | 10 | 12 | - | - | - | - | 10 | - | - | 17.3 | 1021.6 | 0.0 | |
| 02/05:30pm | SE | 15 | 19 | - | - | - | - | 10 | - | - | 18.6 | 1021.3 | 0.0 | |
| 02/05:00pm | SE | 16 | 21 | - | - | - | - | 10 | - | - | 19.4 | 1021.2 | 0.0 | |
| 02/04:30pm | SSE | 16 | 21 | - | - | - | - | 10 | - | - | 19.9 | 1021.1 | 0.0 | |
| 02/04:00pm | SSE | 16 | 27 | - | - | - | - | 10 | - | - | 20.3 | 1021.0 | 0.0 | |
| 02/03:54pm | SE | 16 | 27 | - | - | - | - | 10 | - | - | 20.3 | 1021.0 | 0.0 | |
| 02/03:30pm | SE | 15 | 19 | - | - | - | - | 10 | - | - | 20.4 | 1021.4 | 0.0 | |
| 02/03:00pm | SE | 15 | 22 | - | - | - | - | 10 | - | - | 20.2 | 1021.6 | 0.0 | |
| 02/02:30pm | SE | 16 | 21 | - | - | - | - | 10 | - | - | 20.5 | 1021.7 | 0.0 | |
| 02/02:00pm | SE | 14 | 20 | - | - | - | - | 10 | - | - | 19.7 | 1021.9 | 0.0 | |
| 02/01:30pm | SE | 15 | 20 | - | - | - | - | 10 | - | - | 19.8 | 1022.3 | 0.0 | |
| 02/01:00pm | SE | 14 | 22 | - | - | - | - | 10 | - | - | 19.7 | 1023.0 | 0.0 | |
| 02/12:30pm | SE | 17 | 22 | - | - | - | - | 10 | - | - | 18.8 | 1023.4 | 0.0 | |
| 02/12:00pm | SE | 16 | 22 | - | - | - | - | 10 | - | - | 19.0 | 1023.9 | 0.0 | |
| 02/11:30am | SE | 16 | 21 | - | - | - | - | 10 | - | - | 17.5 | 1024.5 | 0.0 | |
| 02/11:00am | ESE | 16 | 22 | - | - | - | - | 10 | - | - | 17.7 | 1024.8 | 0.0 | |
| 02/10:30am | ESE | 15 | 20 | - | - | - | - | 10 | - | - | 17.2 | 1025.2 | 0.0 | |
| 02/10:00am | E | 15 | 19 | - | - | - | - | 10 | - | - | 16.2 | 1025.5 | 0.0 | |
| 02/09:30am | E | 16 | 20 | - | - | - | - | 10 | - | - | 15.1 | 1025.5 | 0.0 | |
| 02/09:00am | E | 14 | 19 | - | - | - | - | 10 | - | - | 14.2 | 1025.5 | 0.0 | |
| 02/08:30am | ESE | 11 | 16 | - | - | - | - | 10 | - | - | 13.1 | 1025.4 | 0.0 | |
| 02/08:00am | SE | 8 | 12 | - | - | - | - | 10 | - | - | 11.5 | 1024.9 | 0.0 | |
| 02/07:30am | SSE | 8 | 10 | - | - | - | - | 10 | - | - | 10.2 | 1024.3 | 0.0 | |
| 02/07:00am | SE | 11 | 13 | - | - | - | - | 10 | - | - | 10.0 | 1023.7 | 0.0 | |
| 02/06:30am | SE | 11 | 14 | - | - | - | - | 10 | - | - | 9.9 | 1023.4 | 0.0 | |
| 02/06:00am | SE | 11 | 14 | - | - | - | - | 10 | - | - | 9.9 | 1023.3 | 0.0 | |
| 02/05:30am | ESE | 10 | 13 | - | - | - | - | 10 | - | - | 9.6 | 1023.1 | 0.0 | |
| 02/05:00am | SE | 6 | 8 | - | - | - | - | 10 | - | - | 8.2 | 1023.2 | 0.0 | |
| 02/04:30am | SE | 5 | 7 | - | - | - | - | 10 | - | - | 8.6 | 1023.3 | 0.0 | |
| 02/04:00am | SE | 6 | 8 | - | - | - | - | 10 | - | - | 9.3 | 1023.2 | 0.0 | |
| 02/03:30am | ESE | 8 | 9 | - | - | - | - | 10 | - | - | 10.2 | 1023.0 | 0.0 | |
| 02/03:00am | ESE | 11 | 13 | - | - | - | - | 10 | - | - | 10.8 | 1022.9 | 0.0 | |
| 02/02:30am | SE | 7 | 9 | - | - | - | - | 10 | - | - | 10.8 | 1023.0 | 0.0 | |
| 02/02:00am | ESE | 6 | 7 | - | - | - | - | 10 | - | - | 10.2 | 1023.3 | 0.0 | |
| 02/01:30am | SE | 11 | 14 | - | - | - | - | 10 | - | - | 11.6 | 1023.3 | 0.0 | |
| 02/01:00am | SE | 9 | 11 | - | - | - | - | 10 | - | - | 12.0 | 1023.4 | 0.0 | |
| 02/12:30am | SE | 7 | 9 | - | - | - | - | 10 | - | - | 12.7 | 1023.1 | 0.0 | |
| 02/12:00am | SE | 9 | 12 | - | - | - | - | 10 | Mostly clear | - | 13.5 | 1023.1 | 0.0 | |
| Date/Time WST |
Wind | Sea Height m |
Swell | Vis km |
Cloud | Weather | Temp °C |
Press MSL hPa |
Rain since 9am mm |
||||
|---|---|---|---|---|---|---|---|---|---|---|---|---|---|
| Dir | Spd kts |
Gust kts |
Height m |
Period s |
Dir | ||||||||
| 01/11:30pm | SSE | 8 | 10 | - | - | - | - | 10 | Cloudy | - | 14.1 | 1023.6 | 0.0 |
| 01/11:00pm | SE | 11 | 14 | - | - | - | - | 10 | Cloudy | - | 14.4 | 1023.5 | 0.0 |
| 01/10:30pm | SE | 12 | 15 | - | - | - | - | 10 | Cloudy | - | 14.8 | 1023.8 | 0.0 |
| 01/10:00pm | SE | 13 | 16 | - | - | - | - | 10 | Cloudy | - | 15.1 | 1023.7 | 0.0 |
Other formats
Comma delimited format used in spreadsheet applications
http://www.bom.gov.au/fwo/IDW60701/IDW60701.94403.axf
JavaScript Object Notation format (JSON) in row-major order
http://www.bom.gov.au/fwo/IDW60701/IDW60701.94403.json
Data quality
Most of these data are generated automatically and are frequently updated. Quality checks on data are not normally performed. It is possible for incorrect values to appear. Refer to information at About Latest Weather Observations and please check the disclaimer before using these data.
